Time;durP1;ratioP1;P1;durP2;ratioP2;P2;SDS_P1;SDS_P2;PMS_P1;PMS_P2;Temp;Humidity;BMP_temperature;BMP_pressure;BME280_temperature;BME280_humidity;BME280_pressure;Samples;Min_cycle;Max_cycle;Signal;HPM_P1;HPM_P2
2023/04/07 00:01:18;;;;;;;9.67;6.23;;;;;;;4.21;58.44;94559.81;5009696;28;20284;-76
2023/04/07 00:03:44;;;;;;;10.90;5.90;;;;;;;4.18;59.11;94560.97;5000821;28;20180;-76
2023/04/07 00:06:09;;;;;;;9.47;5.87;;;;;;;4.22;57.98;94561.44;5002831;28;20184;-76
2023/04/07 00:08:35;;;;;;;9.30;6.40;;;;;;;4.00;57.71;94518.84;4993895;28;20474;-76
2023/04/07 00:11:00;;;;;;;13.23;7.00;;;;;;;4.08;57.79;94547.38;5011880;28;20176;-76
2023/04/07 00:13:26;;;;;;;12.38;7.05;;;;;;;4.22;58.51;94551.81;5012560;28;20480;-76
2023/04/07 00:15:51;;;;;;;12.40;7.23;;;;;;;4.11;57.88;94557.47;4996994;28;20964;-76
2023/04/07 00:18:17;;;;;;;13.03;7.13;;;;;;;3.99;58.17;94512.81;4992897;28;20482;-76
2023/04/07 00:20:42;;;;;;;8.50;6.40;;;;;;;4.28;58.61;94558.09;4993842;28;20509;-76
2023/04/07 00:23:07;;;;;;;9.37;6.30;;;;;;;4.29;58.07;94551.91;5011049;28;20325;-76
2023/04/07 00:25:33;;;;;;;10.97;6.93;;;;;;;4.24;57.96;94549.03;5005495;28;20974;-76
2023/04/07 00:27:58;;;;;;;11.40;6.53;;;;;;;4.31;57.51;94555.16;5005217;28;20192;-76
2023/04/07 00:30:24;;;;;;;10.50;6.50;;;;;;;4.14;58.11;94533.69;4994889;28;20169;-76
2023/04/07 00:32:50;;;;;;;11.43;6.80;;;;;;;4.22;58.21;94551.00;4993889;28;20256;-76
2023/04/07 00:35:16;;;;;;;11.23;7.63;;;;;;;4.16;58.16;94542.91;4992136;28;20948;-76
2023/04/07 00:37:41;;;;;;;11.40;6.67;;;;;;;4.09;57.26;94536.81;4996323;28;20207;-76
2023/04/07 00:40:07;;;;;;;11.17;6.10;;;;;;;4.22;57.54;94551.81;5013154;28;20192;-76
2023/04/07 00:42:33;;;;;;;9.20;5.95;;;;;;;4.26;57.41;94547.03;5013129;28;20418;-76
2023/04/07 00:44:59;;;;;;;12.20;6.68;;;;;;;4.10;56.83;94535.81;4997958;28;20963;-76
2023/04/07 00:47:25;;;;;;;10.33;7.07;;;;;;;4.21;57.11;94557.19;5000536;28;20444;-76
2023/04/07 00:49:50;;;;;;;10.03;6.70;;;;;;;4.21;56.67;94544.19;4991926;28;20447;-76
2023/04/07 00:52:17;;;;;;;9.95;6.63;;;;;;;4.06;57.07;94542.38;4992211;28;20456;-76
2023/04/07 00:54:44;;;;;;;10.27;6.23;;;;;;;4.15;57.26;94556.91;5016617;28;20626;-76
2023/04/07 00:57:10;;;;;;;10.70;7.10;;;;;;;4.06;57.43;94550.19;5006003;28;20422;-76
2023/04/07 00:59:35;;;;;;;9.60;6.13;;;;;;;4.05;57.38;94550.38;5004464;28;20986;-76
2023/04/07 01:02:40;;;;;;;10.80;6.40;;;;;;;4.23;57.12;94552.63;5012034;28;20435;-76
2023/04/07 01:05:22;;;;;;;11.73;6.32;;;;;;;4.09;57.44;94554.22;4974879;28;20419;-76
2023/04/07 01:07:51;;;;;;;11.25;6.60;;;;;;;4.20;56.91;94545.97;4991768;28;20797;-76
2023/04/07 01:10:25;;;;;;;10.23;6.10;;;;;;;4.17;57.92;94551.53;4998551;28;20645;-76
2023/04/07 01:13:03;;;;;;;15.10;7.35;;;;;;;4.18;57.46;94542.72;5010910;28;20428;-76
2023/04/07 01:15:30;;;;;;;9.30;5.90;;;;;;;4.13;57.11;94543.28;5006505;28;20248;-76
2023/04/07 01:18:10;;;;;;;10.53;6.27;;;;;;;4.12;58.13;94533.03;5011830;28;20183;-76
2023/04/07 01:20:36;;;;;;;14.15;7.25;;;;;;;4.01;57.30;94534.28;5010192;28;20827;-76
2023/04/07 01:23:05;;;;;;;13.23;7.05;;;;;;;4.12;57.70;94530.44;4999033;28;20413;-76
2023/04/07 01:25:43;;;;;;;8.63;6.53;;;;;;;4.18;56.21;94534.91;4997412;28;20414;-76
2023/04/07 01:28:24;;;;;;;10.98;6.47;;;;;;;4.24;57.18;94533.41;5007573;28;20418;-76
2023/04/07 01:30:52;;;;;;;10.88;6.60;;;;;;;4.14;57.44;94547.50;5008847;28;20410;-76
2023/04/07 01:33:19;;;;;;;10.18;6.47;;;;;;;3.96;57.62;94525.41;4997276;28;20406;-76
2023/04/07 01:35:45;;;;;;;10.45;6.50;;;;;;;4.13;57.80;94534.66;5004661;28;20411;-76
2023/04/07 01:38:12;;;;;;;9.67;5.57;;;;;;;4.18;57.97;94530.53;5003507;28;20176;-76
2023/04/07 01:40:39;;;;;;;13.33;6.97;;;;;;;4.05;57.38;94519.94;5004571;28;20529;-76
2023/04/07 01:43:05;;;;;;;10.95;6.97;;;;;;;3.92;57.94;94518.91;4998338;28;20422;-76
2023/04/07 01:45:34;;;;;;;9.57;6.07;;;;;;;4.17;57.88;94528.91;5002545;28;20437;-76
2023/04/07 01:48:00;;;;;;;11.05;6.40;;;;;;;4.29;57.11;94525.84;4990650;28;20424;-76
2023/04/07 01:50:27;;;;;;;10.10;6.80;;;;;;;4.40;56.91;94523.59;4999168;28;20430;-76
2023/04/07 01:52:52;;;;;;;11.00;6.32;;;;;;;4.36;56.59;94511.09;4990723;28;20448;-76
2023/04/07 01:55:18;;;;;;;10.17;6.30;;;;;;;4.45;55.83;94529.06;5006997;28;20486;-76
2023/04/07 01:57:43;;;;;;;9.90;6.25;;;;;;;4.46;55.67;94524.66;5010417;28;20418;-76
2023/04/07 02:00:09;;;;;;;8.57;5.60;;;;;;;4.45;55.99;94507.41;5009930;28;20440;-76
2023/04/07 02:02:40;;;;;;;9.00;5.73;;;;;;;4.64;54.93;94517.28;5006202;28;20181;-76
2023/04/07 02:05:08;;;;;;;9.30;6.25;;;;;;;4.57;54.92;94521.63;4990529;28;20415;-76
2023/04/07 02:07:50;;;;;;;9.82;6.25;;;;;;;4.60;55.17;94517.81;4982757;28;20415;-76
2023/04/07 02:10:18;;;;;;;8.82;5.68;;;;;;;4.64;55.06;94522.50;4997155;28;20415;-76
2023/04/07 02:12:46;;;;;;;9.25;5.82;;;;;;;4.62;54.37;94523.66;5010856;28;20425;-76
2023/04/07 02:15:13;;;;;;;10.52;5.95;;;;;;;4.46;54.58;94493.41;5010430;28;20421;-76
2023/04/07 02:17:40;;;;;;;7.93;5.85;;;;;;;4.54;54.89;94514.16;5004942;28;20943;-76
2023/04/07 02:20:08;;;;;;;9.15;6.63;;;;;;;4.69;54.59;94516.72;4990702;28;20443;-77
2023/04/07 02:22:34;;;;;;;12.93;6.30;;;;;;;4.47;54.80;94502.84;5008882;28;20422;-77
2023/04/07 02:25:00;;;;;;;10.75;5.78;;;;;;;4.61;54.19;94506.41;4997451;28;20412;-77
2023/04/07 02:27:25;;;;;;;7.90;5.33;;;;;;;4.65;54.84;94508.47;5005272;28;20426;-77
2023/04/07 02:29:51;;;;;;;8.53;5.77;;;;;;;4.56;53.74;94506.97;5001526;28;20491;-77
2023/04/07 02:32:16;;;;;;;9.20;5.87;;;;;;;4.65;54.00;94513.69;5009943;28;20422;-77
2023/04/07 02:34:42;;;;;;;8.65;5.40;;;;;;;4.37;54.03;94499.69;5010219;28;20585;-76
2023/04/07 02:37:07;;;;;;;8.87;5.53;;;;;;;4.53;55.48;94517.75;5009818;28;20800;-76
2023/04/07 02:39:33;;;;;;;7.53;5.18;;;;;;;4.52;53.64;94516.13;5002047;28;20407;-76
2023/04/07 02:41:58;;;;;;;9.25;5.68;;;;;;;4.36;54.40;94526.75;5009580;28;20441;-76
2023/04/07 02:44:24;;;;;;;12.03;5.97;;;;;;;4.51;54.72;94530.13;5009707;28;20422;-76
2023/04/07 02:46:49;;;;;;;10.83;5.73;;;;;;;4.68;53.88;94538.56;5010526;28;20537;-76
2023/04/07 02:49:15;;;;;;;7.13;4.90;;;;;;;4.76;54.68;94523.63;5002517;28;20358;-77
2023/04/07 02:51:40;;;;;;;8.83;5.50;;;;;;;4.86;53.35;94518.91;5010547;28;20418;-76
2023/04/07 02:54:05;;;;;;;8.15;5.35;;;;;;;4.59;52.78;94505.75;5010486;28;20450;-76
2023/04/07 02:56:31;;;;;;;8.37;5.17;;;;;;;4.79;54.03;94527.66;5002672;28;20641;-76
2023/04/07 02:58:57;;;;;;;9.20;5.27;;;;;;;4.86;54.57;94528.53;5002596;28;20579;-77
2023/04/07 03:01:22;;;;;;;9.23;6.35;;;;;;;4.86;53.57;94534.56;5010101;28;20457;-76
2023/04/07 03:03:47;;;;;;;8.43;5.40;;;;;;;4.83;54.39;94519.31;5006601;28;20189;-76
2023/04/07 03:06:13;;;;;;;10.87;5.77;;;;;;;4.91;54.49;94519.19;4991618;28;20255;-76
2023/04/07 03:08:38;;;;;;;10.40;6.50;;;;;;;5.00;54.44;94535.53;4990191;28;20436;-75
2023/04/07 03:11:04;;;;;;;9.83;5.40;;;;;;;5.10;53.37;94536.03;4993655;28;20256;-75
2023/04/07 03:13:30;;;;;;;7.90;5.20;;;;;;;5.01;53.35;94526.72;5002286;28;20188;-75
2023/04/07 03:15:56;;;;;;;9.30;5.90;;;;;;;5.07;53.41;94530.38;5007724;28;20423;-75
2023/04/07 03:18:25;;;;;;;8.50;4.73;;;;;;;4.95;52.75;94506.59;4993573;28;20319;-75
2023/04/07 03:20:51;;;;;;;8.57;5.57;;;;;;;5.04;52.91;94541.19;4989899;28;20439;-75
2023/04/07 03:23:17;;;;;;;9.38;5.75;;;;;;;4.75;52.66;94501.19;4997862;28;20494;-76
2023/04/07 03:25:43;;;;;;;9.85;5.50;;;;;;;4.57;53.58;94499.94;5008622;28;21054;-76
2023/04/07 03:28:08;;;;;;;9.63;6.00;;;;;;;4.66;53.49;94537.97;5009010;28;20425;-76
2023/04/07 03:30:34;;;;;;;8.00;5.57;;;;;;;4.66;54.16;94517.91;5009613;28;20764;-76
2023/04/07 03:32:59;;;;;;;8.35;6.03;;;;;;;4.69;54.13;94527.16;5010782;28;20799;-77
2023/04/07 03:35:26;;;;;;;10.52;5.68;;;;;;;4.39;53.95;94484.72;5002798;28;20441;-78
2023/04/07 03:37:51;;;;;;;7.72;5.43;;;;;;;4.53;53.90;94528.97;5001774;28;20410;-78
2023/04/07 03:40:16;;;;;;;8.55;5.75;;;;;;;4.58;54.57;94531.06;5013050;28;20431;-75
2023/04/07 03:42:42;;;;;;;10.70;6.40;;;;;;;4.65;54.12;94528.50;4998717;28;20420;-75
2023/04/07 03:45:09;;;;;;;8.37;5.23;;;;;;;4.60;54.37;94533.44;5002512;28;20176;-75
2023/04/07 03:47:34;;;;;;;8.70;5.65;;;;;;;4.59;54.96;94535.25;4994411;28;20491;-78
2023/04/07 03:50:00;;;;;;;8.93;5.85;;;;;;;4.55;54.15;94516.56;4993926;28;20524;-75
2023/04/07 03:52:25;;;;;;;10.90;5.60;;;;;;;4.68;54.58;94541.16;5003688;28;20176;-75
2023/04/07 03:54:50;;;;;;;10.03;5.67;;;;;;;4.61;54.66;94535.88;5011295;28;20538;-76
2023/04/07 03:57:16;;;;;;;9.13;5.55;;;;;;;4.56;54.41;94520.00;5005078;28;20416;-75
2023/04/07 03:59:41;;;;;;;11.97;5.57;;;;;;;4.53;54.64;94538.59;5000430;28;20533;-75
2023/04/07 04:02:07;;;;;;;8.55;5.32;;;;;;;4.35;54.64;94515.50;4994393;28;20419;-76
2023/04/07 04:04:32;;;;;;;10.47;5.67;;;;;;;4.49;54.78;94542.56;4993284;28;20412;-75
2023/04/07 04:06:57;;;;;;;10.07;5.83;;;;;;;4.56;54.51;94546.06;4993317;28;20856;-75
2023/04/07 04:09:23;;;;;;;9.27;5.37;;;;;;;4.58;55.13;94528.44;5004944;28;20426;-75
2023/04/07 04:11:48;;;;;;;12.33;7.00;;;;;;;4.63;55.49;94520.88;4992914;28;20416;-76
2023/04/07 04:14:14;;;;;;;12.37;6.17;;;;;;;4.81;55.14;94547.38;5003303;28;20199;-76
2023/04/07 04:16:40;;;;;;;15.80;7.57;;;;;;;4.90;55.45;94550.66;5005682;28;20786;-76
2023/04/07 04:19:05;;;;;;;18.87;8.80;;;;;;;4.94;55.51;94546.69;5005549;28;20267;-75
2023/04/07 04:21:30;;;;;;;18.13;10.05;;;;;;;5.02;55.66;94556.19;5002274;28;20519;-76
2023/04/07 04:23:56;;;;;;;14.53;8.17;;;;;;;5.00;55.36;94539.94;5002922;28;20181;-76
2023/04/07 04:26:24;;;;;;;14.13;6.00;;;;;;;5.00;54.25;94542.56;5005014;28;20488;-76
2023/04/07 04:28:50;;;;;;;9.02;5.88;;;;;;;4.86;53.86;94552.81;5007286;28;20420;-75
2023/04/07 04:31:15;;;;;;;9.95;5.93;;;;;;;4.86;54.65;94560.66;5008764;28;21093;-75
2023/04/07 04:33:41;;;;;;;12.70;6.77;;;;;;;4.96;54.28;94555.13;5012354;28;20414;-75
2023/04/07 04:36:06;;;;;;;10.97;5.90;;;;;;;5.02;53.93;94564.03;4994823;28;20401;-74
2023/04/07 04:38:32;;;;;;;9.40;5.37;;;;;;;5.11;54.57;94561.13;5002481;28;20180;-75
2023/04/07 04:40:57;;;;;;;9.23;5.60;;;;;;;5.18;54.98;94556.81;4993912;28;20340;-75
2023/04/07 04:43:22;;;;;;;9.90;5.47;;;;;;;5.14;54.64;94552.94;4992827;28;20192;-75
2023/04/07 04:45:48;;;;;;;8.37;5.33;;;;;;;5.34;54.22;94570.59;5019818;28;20653;-75
2023/04/07 04:48:13;;;;;;;20.33;8.27;;;;;;;5.37;55.37;94568.41;5003639;28;20267;-75
2023/04/07 04:50:41;;;;;;;17.97;8.67;;;;;;;5.39;56.89;94574.25;5003174;28;20248;-75
2023/04/07 04:53:06;;;;;;;19.67;8.80;;;;;;;5.48;57.61;94564.50;5000797;28;20236;-75
2023/04/07 04:55:31;;;;;;;21.93;9.03;;;;;;;5.38;58.73;94564.81;5004527;28;20231;-75
2023/04/07 04:57:57;;;;;;;22.73;9.67;;;;;;;5.41;59.20;94574.88;5003278;28;20185;-75
2023/04/07 05:00:22;;;;;;;17.97;10.23;;;;;;;5.42;58.98;94575.69;5003919;28;20209;-75
2023/04/07 05:02:48;;;;;;;19.77;10.10;;;;;;;5.42;59.37;94586.13;4992545;28;20181;-75
2023/04/07 05:05:13;;;;;;;22.30;11.33;;;;;;;5.43;59.90;94578.13;4997097;28;20202;-75
2023/04/07 05:07:39;;;;;;;20.20;9.40;;;;;;;5.48;59.97;94580.16;4998070;28;20181;-75
2023/04/07 05:10:06;;;;;;;13.63;9.10;;;;;;;5.46;59.39;94593.41;4994980;28;20674;-75
2023/04/07 05:12:32;;;;;;;18.63;9.17;;;;;;;5.64;59.17;94596.38;4992655;28;20657;-74
2023/04/07 05:14:57;;;;;;;23.23;9.97;;;;;;;5.77;59.09;94595.72;5006022;28;20172;-74
2023/04/07 05:17:22;;;;;;;15.90;9.43;;;;;;;6.14;59.36;94586.00;5004735;28;20544;-75
2023/04/07 05:19:48;;;;;;;20.67;10.17;;;;;;;6.89;58.11;94585.22;5002039;28;20200;-76
2023/04/07 05:22:13;;;;;;;19.37;11.93;;;;;;;7.73;55.96;94596.94;4997083;28;20630;-75
2023/04/07 05:24:38;;;;;;;17.60;10.10;;;;;;;8.43;53.36;94586.88;4995111;28;20188;-75
2023/04/07 05:27:04;;;;;;;20.87;10.70;;;;;;;8.66;52.67;94610.84;4994588;28;20173;-75
2023/04/07 05:29:29;;;;;;;17.57;10.20;;;;;;;8.53;51.46;94606.47;4993462;28;20192;-75
2023/04/07 05:31:55;;;;;;;17.93;9.57;;;;;;;7.99;52.21;94608.44;4992260;28;20177;-74
2023/04/07 05:34:20;;;;;;;22.93;9.97;;;;;;;7.69;53.35;94605.41;4991031;28;20284;-75
2023/04/07 05:36:45;;;;;;;21.27;10.47;;;;;;;7.54;55.14;94601.13;4993700;28;20181;-74
2023/04/07 05:39:11;;;;;;;17.33;10.60;;;;;;;7.64;54.94;94606.00;4993731;28;20552;-75
2023/04/07 05:41:36;;;;;;;21.37;10.00;;;;;;;7.71;53.98;94601.56;4992344;28;20959;-75
2023/04/07 05:44:02;;;;;;;18.57;10.83;;;;;;;7.54;54.48;94600.31;4992520;28;20196;-75
2023/04/07 05:46:28;;;;;;;24.73;10.93;;;;;;;7.19;54.96;94582.09;4992487;28;20177;-75
2023/04/07 05:48:53;;;;;;;18.00;11.50;;;;;;;7.26;56.56;94610.13;5010253;28;20208;-75
2023/04/07 05:51:20;;;;;;;20.37;10.93;;;;;;;7.13;57.46;94601.22;5000434;28;20378;-75
2023/04/07 05:53:45;;;;;;;22.80;11.10;;;;;;;6.89;56.54;94591.25;4997433;28;20237;-76
2023/04/07 05:56:10;;;;;;;23.40;11.50;;;;;;;6.90;56.79;94605.16;5005078;28;20257;-76
2023/04/07 05:58:36;;;;;;;21.23;10.67;;;;;;;6.71;57.56;94591.78;4992598;28;20653;-76
2023/04/07 06:01:01;;;;;;;21.10;11.20;;;;;;;6.78;58.05;94597.84;4995286;28;20581;-76
2023/04/07 06:03:27;;;;;;;25.30;13.37;;;;;;;6.99;57.65;94593.53;4997715;28;20179;-76
2023/04/07 06:05:52;;;;;;;24.33;13.60;;;;;;;7.59;57.46;94579.59;5002771;28;20172;-76
2023/04/07 06:08:17;;;;;;;26.07;14.80;;;;;;;8.18;56.14;94599.78;5003298;28;20649;-76
2023/04/07 06:10:43;;;;;;;26.80;14.10;;;;;;;8.19;52.19;94589.09;5000227;28;20252;-76
2023/04/07 06:13:08;;;;;;;14.10;8.17;;;;;;;8.37;47.69;94580.66;5006517;28;20255;-77
2023/04/07 06:15:34;;;;;;;40.87;21.97;;;;;;;8.91;45.69;94597.88;5001641;28;20192;-76
2023/04/07 06:17:59;;;;;;;18.17;9.63;;;;;;;9.57;43.77;94606.31;5011085;28;20255;-76
2023/04/07 06:20:26;;;;;;;14.73;9.47;;;;;;;9.65;42.09;94605.25;5005274;28;20199;-76
2023/04/07 06:22:53;;;;;;;18.30;10.10;;;;;;;9.92;43.64;94588.28;5003058;28;20199;-76
2023/04/07 06:25:18;;;;;;;10.93;5.30;;;;;;;9.74;42.02;94575.06;5003938;28;20187;-76
2023/04/07 06:27:44;;;;;;;15.07;7.80;;;;;;;10.59;40.63;94570.97;5001575;28;20176;-77
2023/04/07 06:30:10;;;;;;;11.67;7.30;;;;;;;11.37;38.59;94588.72;5003150;28;20641;-76
2023/04/07 06:32:35;;;;;;;22.67;12.40;;;;;;;12.79;38.80;94603.66;5012655;28;20645;-76
2023/04/07 06:35:00;;;;;;;41.57;21.43;;;;;;;13.72;34.66;94571.75;5003149;28;20180;-80
2023/04/07 06:37:26;;;;;;;25.53;12.50;;;;;;;14.30;33.44;94600.53;5003384;28;20276;-77
2023/04/07 06:39:51;;;;;;;30.73;21.63;;;;;;;14.74;33.28;94598.06;5003109;28;20207;-79
2023/04/07 06:42:17;;;;;;;21.90;17.03;;;;;;;14.23;32.33;94594.59;5003426;28;20172;-78
2023/04/07 06:44:42;;;;;;;26.80;18.27;;;;;;;12.76;33.13;94601.47;5003071;28;20177;-76
2023/04/07 06:47:08;;;;;;;30.03;18.80;;;;;;;12.52;34.66;94589.31;5000093;28;20719;-77
2023/04/07 06:49:34;;;;;;;21.23;13.70;;;;;;;11.85;35.21;94588.72;4992363;28;20220;-78
2023/04/07 06:51:59;;;;;;;37.23;26.23;;;;;;;11.61;36.19;94575.41;4992301;28;20178;-76
2023/04/07 06:54:25;;;;;;;37.57;26.83;;;;;;;11.49;36.38;94600.13;4992237;28;20627;-76
2023/04/07 06:56:50;;;;;;;40.77;21.93;;;;;;;10.61;37.46;94595.25;4992152;28;20185;-77
2023/04/07 06:59:16;;;;;;;28.73;15.57;;;;;;;10.75;38.55;94596.72;4992068;28;20645;-76
2023/04/07 07:01:42;;;;;;;13.47;8.40;;;;;;;10.89;38.71;94592.94;4991541;28;20197;-76
2023/04/07 07:04:07;;;;;;;15.00;8.20;;;;;;;10.87;38.18;94597.59;4992194;28;20200;-77
2023/04/07 07:06:33;;;;;;;40.17;18.20;;;;;;;11.11;39.29;94603.81;4992311;28;20193;-77
2023/04/07 07:08:59;;;;;;;27.80;8.47;;;;;;;10.65;37.24;94588.50;4992159;28;20609;-76
2023/04/07 07:11:26;;;;;;;19.53;8.67;;;;;;;10.05;39.18;94584.75;4991362;28;20185;-76
2023/04/07 07:13:51;;;;;;;28.33;14.33;;;;;;;10.24;39.12;94611.94;4993723;28;20168;-75
2023/04/07 07:16:16;;;;;;;21.57;10.90;;;;;;;10.28;39.85;94610.50;4995540;28;20234;-76
2023/04/07 07:18:42;;;;;;;18.63;6.37;;;;;;;10.41;39.17;94613.84;4995416;28;20176;-76
2023/04/07 07:21:07;;;;;;;11.77;5.57;;;;;;;10.42;39.83;94612.81;4981016;28;20193;-76
2023/04/07 07:23:33;;;;;;;17.13;8.10;;;;;;;10.02;38.25;94607.03;4974684;28;20187;-76
2023/04/07 07:25:59;;;;;;;9.37;5.20;;;;;;;9.58;38.94;94613.19;4974341;28;20804;-76
2023/04/07 07:28:24;;;;;;;14.67;6.93;;;;;;;9.13;42.03;94601.84;4974564;28;20173;-77
2023/04/07 07:30:50;;;;;;;13.37;5.77;;;;;;;8.84;41.78;94615.47;4972725;28;20170;-76
2023/04/07 07:33:15;;;;;;;10.50;6.00;;;;;;;8.94;42.10;94621.91;4972770;28;20181;-76
2023/04/07 07:35:40;;;;;;;16.37;8.00;;;;;;;8.93;41.52;94624.72;4972524;28;20170;-76
2023/04/07 07:38:06;;;;;;;12.10;7.53;;;;;;;8.82;42.09;94610.41;4972575;28;20194;-76
2023/04/07 07:40:32;;;;;;;13.20;6.00;;;;;;;8.88;43.01;94627.19;4973112;28;20197;-76
2023/04/07 07:42:58;;;;;;;13.43;6.93;;;;;;;9.01;43.66;94633.19;4972418;28;20277;-76
2023/04/07 07:45:24;;;;;;;10.87;5.40;;;;;;;9.26;42.75;94629.88;4973970;28;20273;-76
2023/04/07 07:47:49;;;;;;;9.00;5.13;;;;;;;9.45;42.83;94629.00;4974091;28;20333;-76
2023/04/07 07:50:14;;;;;;;17.07;6.83;;;;;;;9.58;43.19;94609.75;4973985;28;20248;-76
2023/04/07 07:52:40;;;;;;;7.17;4.43;;;;;;;9.88;41.43;94630.97;4986756;28;20259;-76
2023/04/07 07:55:06;;;;;;;11.60;4.23;;;;;;;9.92;40.27;94634.81;4993424;28;20654;-76
2023/04/07 07:57:31;;;;;;;13.03;7.20;;;;;;;10.05;42.03;94622.38;4993172;28;20232;-76
2023/04/07 07:59:57;;;;;;;14.00;6.57;;;;;;;10.11;40.06;94618.91;4993287;28;20775;-76
2023/04/07 08:02:28;;;;;;;11.17;5.53;;;;;;;9.87;39.25;94611.78;4993284;28;20665;-76
2023/04/07 08:04:53;;;;;;;20.07;8.10;;;;;;;9.52;39.33;94587.72;4993493;28;20177;-76
2023/04/07 08:07:19;;;;;;;20.40;7.80;;;;;;;9.69;41.77;94627.44;4993043;28;20187;-76
2023/04/07 08:09:44;;;;;;;17.87;9.43;;;;;;;9.77;40.88;94629.84;4994073;28;20559;-76
2023/04/07 08:12:10;;;;;;;10.70;6.40;;;;;;;9.86;39.69;94615.41;4994033;28;20180;-76
2023/04/07 08:14:35;;;;;;;11.30;6.13;;;;;;;10.33;41.88;94629.09;4993785;28;20180;-76
2023/04/07 08:17:01;;;;;;;8.73;4.43;;;;;;;10.51;40.12;94632.56;4993095;28;20268;-76
2023/04/07 08:19:26;;;;;;;8.93;5.27;;;;;;;10.64;42.94;94628.22;5005621;28;20251;-76
2023/04/07 08:21:51;;;;;;;7.13;4.57;;;;;;;10.68;40.25;94629.38;5012795;28;20221;-76
2023/04/07 08:24:17;;;;;;;7.23;4.70;;;;;;;10.55;40.07;94606.66;5011592;28;20607;-76
2023/04/07 08:26:44;;;;;;;6.83;4.93;;;;;;;10.45;39.06;94632.63;5011986;28;20645;-76
2023/04/07 08:29:09;;;;;;;10.20;5.20;;;;;;;10.37;40.37;94632.91;5012172;28;20246;-76
2023/04/07 08:31:35;;;;;;;9.93;5.53;;;;;;;10.25;40.00;94632.78;5012278;28;20169;-76
2023/04/07 08:34:00;;;;;;;20.93;11.20;;;;;;;9.89;38.24;94630.78;5012278;28;20184;-76
2023/04/07 08:36:26;;;;;;;8.73;6.20;;;;;;;9.97;41.16;94633.16;5012243;28;20183;-76
2023/04/07 08:38:52;;;;;;;19.00;8.87;;;;;;;9.99;41.18;94615.34;5012239;28;20177;-76
2023/04/07 08:41:30;;;;;;;11.20;6.23;;;;;;;10.10;41.35;94627.81;5012007;28;20196;-76
2023/04/07 08:43:56;;;;;;;11.43;6.33;;;;;;;10.53;43.25;94614.75;5011770;28;20248;-76
2023/04/07 08:46:24;;;;;;;7.30;4.80;;;;;;;10.94;38.86;94635.22;5011740;28;20178;-76
2023/04/07 08:48:51;;;;;;;7.03;4.77;;;;;;;10.28;38.10;94632.38;5011444;28;20184;-76
2023/04/07 08:51:26;;;;;;;7.90;3.90;;;;;;;9.62;39.72;94614.34;5011681;28;20239;-76
2023/04/07 08:53:52;;;;;;;13.43;6.90;;;;;;;9.26;40.77;94628.06;5011604;28;20579;-76
2023/04/07 08:56:22;;;;;;;15.80;8.00;;;;;;;9.62;42.43;94638.00;5011237;28;20168;-77
2023/04/07 08:58:48;;;;;;;19.10;10.03;;;;;;;9.98;44.30;94637.38;5026456;28;20188;-76
2023/04/07 09:01:14;;;;;;;14.47;8.60;;;;;;;10.57;42.81;94641.44;5011209;28;20591;-76
2023/04/07 09:03:45;;;;;;;15.03;9.07;;;;;;;11.16;42.14;94629.50;5011439;28;20188;-76
2023/04/07 09:06:10;;;;;;;22.30;13.03;;;;;;;11.51;40.65;94616.50;5011324;28;20184;-76
2023/04/07 09:08:36;;;;;;;11.10;6.73;;;;;;;11.38;37.96;94603.50;4998756;28;20546;-76
2023/04/07 09:11:02;;;;;;;10.13;5.93;;;;;;;11.04;38.84;94626.00;4991648;28;20303;-78
2023/04/07 09:13:27;;;;;;;8.87;5.77;;;;;;;11.04;39.85;94631.25;4991729;28;20177;-76
2023/04/07 09:15:53;;;;;;;6.80;4.97;;;;;;;11.40;41.97;94628.63;4991712;28;20228;-76
2023/04/07 09:18:18;;;;;;;10.77;5.57;;;;;;;11.87;40.63;94627.03;4991440;28;20177;-76
2023/04/07 09:21:13;;;;;;;9.77;5.83;;;;;;;12.17;38.76;94634.94;4991541;28;20279;-76
2023/04/07 09:23:40;;;;;;;6.80;5.13;;;;;;;12.16;38.18;94629.88;4982973;28;20193;-76
2023/04/07 09:26:27;;;;;;;9.90;6.53;;;;;;;12.40;38.22;94632.31;5010859;28;20187;-76
2023/04/07 09:29:01;;;;;;;10.07;5.97;;;;;;;12.36;38.76;94640.94;5011048;28;20182;-76
2023/04/07 09:31:49;;;;;;;8.63;6.07;;;;;;;12.31;38.47;94627.59;5010791;28;20661;-76
2023/04/07 09:34:27;;;;;;;16.83;7.20;;;;;;;12.39;37.50;94636.00;5011150;28;20243;-76
2023/04/07 09:36:53;;;;;;;8.80;5.80;;;;;;;12.29;37.77;94630.47;5010647;28;20321;-76
2023/04/07 09:39:19;;;;;;;7.77;5.40;;;;;;;12.33;39.02;94644.81;5011122;28;20184;-76
2023/04/07 09:41:45;;;;;;;15.50;5.43;;;;;;;12.31;38.08;94646.06;4995630;28;20200;-76
2023/04/07 09:44:10;;;;;;;9.97;6.47;;;;;;;12.27;37.70;94643.09;4991498;28;20223;-76
2023/04/07 09:46:55;;;;;;;9.10;5.60;;;;;;;12.14;38.80;94634.56;4992286;28;20181;-76
2023/04/07 09:49:21;;;;;;;8.13;5.20;;;;;;;11.95;37.65;94634.63;4973316;28;20232;-75
2023/04/07 09:51:56;;;;;;;9.50;5.83;;;;;;;11.83;39.02;94641.69;5012060;28;20185;-76
2023/04/07 09:54:36;;;;;;;10.20;5.93;;;;;;;11.90;40.27;94633.69;4980685;28;20179;-78
2023/04/07 09:57:03;;;;;;;6.80;5.10;;;;;;;12.08;39.20;94657.38;4997655;28;20208;-77
2023/04/07 09:59:31;;;;;;;12.40;5.40;;;;;;;12.23;40.39;94657.75;4992761;28;20181;-77
2023/04/07 10:01:57;;;;;;;8.83;5.93;;;;;;;12.28;39.49;94644.69;5001110;28;20185;-77
2023/04/07 10:04:24;;;;;;;6.90;5.23;;;;;;;12.35;40.02;94655.16;4997867;28;20555;-77
2023/04/07 10:06:51;;;;;;;10.07;6.63;;;;;;;12.03;37.47;94622.94;5003639;28;20168;-77
2023/04/07 10:09:17;;;;;;;9.97;5.83;;;;;;;11.77;37.79;94645.22;5000485;28;20180;-77
2023/04/07 10:11:43;;;;;;;16.63;7.37;;;;;;;11.67;40.52;94623.84;5001604;28;20199;-77
2023/04/07 10:14:09;;;;;;;12.10;5.93;;;;;;;11.89;40.93;94640.00;4994111;28;20180;-77
2023/04/07 10:16:37;;;;;;;11.37;5.97;;;;;;;11.75;38.90;94633.28;5005403;28;20235;-77
2023/04/07 10:19:05;;;;;;;11.20;6.03;;;;;;;11.67;39.96;94652.84;5011303;28;20188;-77
2023/04/07 10:21:34;;;;;;;9.33;5.60;;;;;;;11.61;38.97;94651.88;4991636;28;20215;-77
2023/04/07 10:24:44;;;;;;;16.20;7.77;;;;;;;11.45;39.02;94655.13;4991478;28;20188;-77
2023/04/07 10:27:15;;;;;;;11.70;6.37;;;;;;;11.13;39.76;94643.94;5000711;28;20191;-78
2023/04/07 10:29:43;;;;;;;12.77;7.10;;;;;;;11.03;40.77;94645.47;5011421;28;20207;-77
2023/04/07 10:32:09;;;;;;;10.97;7.10;;;;;;;11.00;41.48;94632.72;5009226;28;20168;-77
2023/04/07 10:34:52;;;;;;;8.83;5.70;;;;;;;11.03;42.37;94650.72;5002901;28;20211;-77
2023/04/07 10:37:21;;;;;;;20.43;5.33;;;;;;;10.91;42.11;94632.19;4994380;28;20235;-77
2023/04/07 10:39:51;;;;;;;13.73;5.77;;;;;;;11.06;42.22;94655.56;4997956;28;20180;-77
2023/04/07 10:42:38;;;;;;;9.30;5.43;;;;;;;11.06;42.70;94666.91;4995387;28;20220;-77
2023/04/07 10:45:08;;;;;;;8.27;5.30;;;;;;;10.82;42.65;94651.94;4992332;28;20181;-77
2023/04/07 10:47:35;;;;;;;9.63;6.07;;;;;;;10.85;44.19;94662.03;4992625;28;20566;-77
2023/04/07 10:50:21;;;;;;;8.33;5.47;;;;;;;11.01;43.28;94661.47;4998720;28;20217;-77
2023/04/07 10:52:48;;;;;;;10.43;6.07;;;;;;;10.97;43.10;94665.59;5003947;28;20207;-77
2023/04/07 10:55:44;;;;;;;8.90;5.43;;;;;;;10.90;43.40;94659.53;5001172;28;20320;-76
2023/04/07 10:58:27;;;;;;;9.07;5.30;;;;;;;10.97;44.54;94657.69;4997106;28;20279;-76
2023/04/07 11:00:56;;;;;;;9.80;5.80;;;;;;;11.17;44.06;94668.81;4998704;28;20196;-77
2023/04/07 11:03:22;;;;;;;9.57;5.50;;;;;;;11.19;43.92;94650.94;5004500;28;20189;-77
2023/04/07 11:05:48;;;;;;;10.07;6.33;;;;;;;11.29;42.54;94668.88;5007467;28;20175;-78
2023/04/07 11:08:36;;;;;;;9.27;6.13;;;;;;;11.41;44.39;94668.97;5007207;28;20176;-78
2023/04/07 11:11:02;;;;;;;8.20;5.00;;;;;;;11.51;43.94;94650.78;4999188;28;20173;-77
2023/04/07 11:13:27;;;;;;;8.67;5.90;;;;;;;11.59;42.44;94650.47;4990864;28;20174;-77
2023/04/07 11:15:53;;;;;;;13.50;6.07;;;;;;;11.65;42.41;94662.78;5004029;28;20308;-78
2023/04/07 11:18:20;;;;;;;8.03;5.83;;;;;;;11.54;43.07;94664.34;5013766;28;20245;-76
2023/04/07 11:21:01;;;;;;;11.83;6.50;;;;;;;11.45;43.92;94668.28;5013515;28;20974;-76
2023/04/07 11:23:28;;;;;;;8.93;5.90;;;;;;;11.44;43.74;94665.88;5015391;28;20191;-77
2023/04/07 11:26:01;;;;;;;10.60;5.50;;;;;;;11.42;43.59;94668.72;5009854;28;20188;-77
2023/04/07 11:28:27;;;;;;;11.43;6.63;;;;;;;11.31;43.22;94664.22;5003821;28;20191;-78
2023/04/07 11:30:55;;;;;;;12.87;7.23;;;;;;;11.14;44.08;94652.66;5005721;28;20173;-77
2023/04/07 11:33:26;;;;;;;6.50;4.93;;;;;;;11.20;43.75;94668.38;5005722;28;20263;-77